sensor_id;sensor_type;location;lat;lon;timestamp;P1;durP1;ratioP1;P2;durP2;ratioP2
83835;SDS011;73859;40.830;43.828;2024-01-07T00:01:47;3.25;;;2.00;;
83835;SDS011;73859;40.830;43.828;2024-01-07T00:04:15;3.55;;;1.60;;
83835;SDS011;73859;40.830;43.828;2024-01-07T00:06:43;2.80;;;2.00;;
83835;SDS011;73859;40.830;43.828;2024-01-07T00:09:11;5.68;;;1.90;;
83835;SDS011;73859;40.830;43.828;2024-01-07T00:11:41;3.03;;;1.40;;
83835;SDS011;73859;40.830;43.828;2024-01-07T00:14:09;3.67;;;1.67;;
83835;SDS011;73859;40.830;43.828;2024-01-07T00:16:36;2.55;;;1.67;;
83835;SDS011;73859;40.830;43.828;2024-01-07T00:19:03;3.40;;;1.65;;
83835;SDS011;73859;40.830;43.828;2024-01-07T00:21:31;3.58;;;1.40;;
83835;SDS011;73859;40.830;43.828;2024-01-07T00:23:59;4.43;;;1.85;;
83835;SDS011;73859;40.830;43.828;2024-01-07T00:26:26;2.63;;;1.60;;
83835;SDS011;73859;40.830;43.828;2024-01-07T00:28:54;4.00;;;1.95;;
83835;SDS011;73859;40.830;43.828;2024-01-07T00:31:21;2.50;;;1.83;;
83835;SDS011;73859;40.830;43.828;2024-01-07T00:33:49;3.72;;;2.05;;
83835;SDS011;73859;40.830;43.828;2024-01-07T00:36:17;3.75;;;2.05;;
83835;SDS011;73859;40.830;43.828;2024-01-07T00:38:45;5.65;;;2.80;;
83835;SDS011;73859;40.830;43.828;2024-01-07T00:41:12;7.00;;;2.30;;
83835;SDS011;73859;40.830;43.828;2024-01-07T00:43:40;5.28;;;2.10;;
83835;SDS011;73859;40.830;43.828;2024-01-07T00:46:08;2.20;;;1.30;;
83835;SDS011;73859;40.830;43.828;2024-01-07T00:48:35;2.72;;;1.65;;
83835;SDS011;73859;40.830;43.828;2024-01-07T00:51:03;4.28;;;2.03;;
83835;SDS011;73859;40.830;43.828;2024-01-07T00:53:31;3.13;;;1.38;;
83835;SDS011;73859;40.830;43.828;2024-01-07T00:55:58;2.35;;;1.70;;
83835;SDS011;73859;40.830;43.828;2024-01-07T00:58:26;5.13;;;1.95;;
83835;SDS011;73859;40.830;43.828;2024-01-07T01:00:53;3.40;;;1.65;;
83835;SDS011;73859;40.830;43.828;2024-01-07T01:03:21;2.85;;;1.48;;
83835;SDS011;73859;40.830;43.828;2024-01-07T01:05:49;3.22;;;1.52;;
83835;SDS011;73859;40.830;43.828;2024-01-07T01:08:17;3.65;;;1.52;;
83835;SDS011;73859;40.830;43.828;2024-01-07T01:10:44;2.45;;;1.30;;
83835;SDS011;73859;40.830;43.828;2024-01-07T01:13:11;2.88;;;1.35;;
83835;SDS011;73859;40.830;43.828;2024-01-07T01:15:39;4.45;;;1.20;;
83835;SDS011;73859;40.830;43.828;2024-01-07T01:18:07;2.53;;;1.60;;
83835;SDS011;73859;40.830;43.828;2024-01-07T01:20:34;1.83;;;1.10;;
83835;SDS011;73859;40.830;43.828;2024-01-07T01:23:02;2.35;;;1.38;;
83835;SDS011;73859;40.830;43.828;2024-01-07T01:25:29;2.63;;;1.60;;
83835;SDS011;73859;40.830;43.828;2024-01-07T01:27:57;3.28;;;1.52;;
83835;SDS011;73859;40.830;43.828;2024-01-07T01:30:25;4.20;;;1.98;;
83835;SDS011;73859;40.830;43.828;2024-01-07T01:32:54;3.13;;;1.80;;
83835;SDS011;73859;40.830;43.828;2024-01-07T01:35:22;2.47;;;1.17;;
83835;SDS011;73859;40.830;43.828;2024-01-07T01:37:50;4.65;;;1.33;;
83835;SDS011;73859;40.830;43.828;2024-01-07T01:40:17;4.70;;;1.45;;
83835;SDS011;73859;40.830;43.828;2024-01-07T01:42:45;3.95;;;1.92;;
83835;SDS011;73859;40.830;43.828;2024-01-07T01:45:14;2.17;;;1.42;;
83835;SDS011;73859;40.830;43.828;2024-01-07T01:47:42;2.67;;;1.25;;
83835;SDS011;73859;40.830;43.828;2024-01-07T01:50:10;7.10;;;1.98;;
83835;SDS011;73859;40.830;43.828;2024-01-07T01:52:38;2.80;;;1.55;;
83835;SDS011;73859;40.830;43.828;2024-01-07T01:55:07;2.40;;;1.65;;
83835;SDS011;73859;40.830;43.828;2024-01-07T01:57:35;4.85;;;1.90;;
83835;SDS011;73859;40.830;43.828;2024-01-07T02:00:06;7.18;;;2.08;;
83835;SDS011;73859;40.830;43.828;2024-01-07T02:02:35;5.68;;;2.45;;
83835;SDS011;73859;40.830;43.828;2024-01-07T02:05:03;4.82;;;1.42;;
83835;SDS011;73859;40.830;43.828;2024-01-07T02:07:31;3.33;;;1.70;;
83835;SDS011;73859;40.830;43.828;2024-01-07T02:09:59;3.92;;;1.58;;
83835;SDS011;73859;40.830;43.828;2024-01-07T02:12:27;2.10;;;1.27;;
83835;SDS011;73859;40.830;43.828;2024-01-07T02:14:54;4.72;;;1.73;;
83835;SDS011;73859;40.830;43.828;2024-01-07T02:17:22;4.63;;;1.70;;
83835;SDS011;73859;40.830;43.828;2024-01-07T02:19:49;3.03;;;1.52;;
83835;SDS011;73859;40.830;43.828;2024-01-07T02:22:17;1.98;;;1.30;;
83835;SDS011;73859;40.830;43.828;2024-01-07T02:24:45;14.13;;;5.10;;
83835;SDS011;73859;40.830;43.828;2024-01-07T02:27:13;8.40;;;3.00;;
83835;SDS011;73859;40.830;43.828;2024-01-07T02:29:40;4.82;;;2.40;;
83835;SDS011;73859;40.830;43.828;2024-01-07T02:32:08;14.05;;;5.10;;
83835;SDS011;73859;40.830;43.828;2024-01-07T02:34:35;27.40;;;8.13;;
83835;SDS011;73859;40.830;43.828;2024-01-07T02:37:03;37.47;;;10.45;;
83835;SDS011;73859;40.830;43.828;2024-01-07T02:39:31;22.60;;;9.20;;
83835;SDS011;73859;40.830;43.828;2024-01-07T02:41:58;7.05;;;3.05;;
83835;SDS011;73859;40.830;43.828;2024-01-07T02:44:26;3.78;;;1.60;;
83835;SDS011;73859;40.830;43.828;2024-01-07T02:46:53;4.43;;;2.05;;
83835;SDS011;73859;40.830;43.828;2024-01-07T02:49:21;4.90;;;2.30;;
83835;SDS011;73859;40.830;43.828;2024-01-07T02:51:48;4.22;;;2.10;;
83835;SDS011;73859;40.830;43.828;2024-01-07T02:54:16;6.40;;;2.67;;
83835;SDS011;73859;40.830;43.828;2024-01-07T02:56:44;4.28;;;2.25;;
83835;SDS011;73859;40.830;43.828;2024-01-07T02:59:11;7.55;;;2.08;;
83835;SDS011;73859;40.830;43.828;2024-01-07T03:01:39;4.38;;;2.20;;
83835;SDS011;73859;40.830;43.828;2024-01-07T03:06:37;9.35;;;3.10;;
83835;SDS011;73859;40.830;43.828;2024-01-07T03:09:04;6.30;;;2.42;;
83835;SDS011;73859;40.830;43.828;2024-01-07T03:11:32;4.75;;;1.77;;
83835;SDS011;73859;40.830;43.828;2024-01-07T03:13:59;4.65;;;2.72;;
83835;SDS011;73859;40.830;43.828;2024-01-07T03:16:26;4.30;;;1.98;;
83835;SDS011;73859;40.830;43.828;2024-01-07T03:18:54;5.18;;;3.03;;
83835;SDS011;73859;40.830;43.828;2024-01-07T03:21:22;3.47;;;1.83;;
83835;SDS011;73859;40.830;43.828;2024-01-07T03:23:50;4.40;;;1.90;;
83835;SDS011;73859;40.830;43.828;2024-01-07T03:26:19;5.18;;;2.50;;
83835;SDS011;73859;40.830;43.828;2024-01-07T03:28:46;3.28;;;1.90;;
83835;SDS011;73859;40.830;43.828;2024-01-07T03:31:14;3.55;;;2.05;;
83835;SDS011;73859;40.830;43.828;2024-01-07T03:33:43;4.57;;;2.35;;
83835;SDS011;73859;40.830;43.828;2024-01-07T03:36:11;3.28;;;2.00;;
83835;SDS011;73859;40.830;43.828;2024-01-07T03:38:40;5.35;;;2.40;;
83835;SDS011;73859;40.830;43.828;2024-01-07T03:41:07;3.10;;;2.17;;
83835;SDS011;73859;40.830;43.828;2024-01-07T03:43:35;3.42;;;1.85;;
83835;SDS011;73859;40.830;43.828;2024-01-07T03:46:03;3.83;;;2.28;;
83835;SDS011;73859;40.830;43.828;2024-01-07T03:48:30;4.32;;;2.50;;
83835;SDS011;73859;40.830;43.828;2024-01-07T03:50:58;3.95;;;2.10;;
83835;SDS011;73859;40.830;43.828;2024-01-07T03:53:25;4.60;;;2.10;;
83835;SDS011;73859;40.830;43.828;2024-01-07T03:55:52;4.18;;;2.03;;
83835;SDS011;73859;40.830;43.828;2024-01-07T03:58:20;6.57;;;3.33;;
83835;SDS011;73859;40.830;43.828;2024-01-07T04:00:47;7.70;;;3.05;;
83835;SDS011;73859;40.830;43.828;2024-01-07T04:03:15;4.18;;;2.53;;
83835;SDS011;73859;40.830;43.828;2024-01-07T04:05:45;4.45;;;2.45;;
83835;SDS011;73859;40.830;43.828;2024-01-07T04:08:13;7.65;;;2.47;;
83835;SDS011;73859;40.830;43.828;2024-01-07T04:10:42;4.00;;;2.08;;
83835;SDS011;73859;40.830;43.828;2024-01-07T04:13:09;3.78;;;2.08;;
83835;SDS011;73859;40.830;43.828;2024-01-07T04:15:37;3.45;;;2.20;;
83835;SDS011;73859;40.830;43.828;2024-01-07T04:18:04;3.80;;;2.20;;
83835;SDS011;73859;40.830;43.828;2024-01-07T04:20:32;4.30;;;1.88;;
83835;SDS011;73859;40.830;43.828;2024-01-07T04:23:00;4.65;;;2.25;;
83835;SDS011;73859;40.830;43.828;2024-01-07T04:25:27;3.70;;;1.92;;
83835;SDS011;73859;40.830;43.828;2024-01-07T04:27:55;3.85;;;1.95;;
83835;SDS011;73859;40.830;43.828;2024-01-07T04:30:22;5.18;;;2.33;;
83835;SDS011;73859;40.830;43.828;2024-01-07T04:32:49;5.57;;;2.28;;
83835;SDS011;73859;40.830;43.828;2024-01-07T04:35:17;11.93;;;4.43;;
83835;SDS011;73859;40.830;43.828;2024-01-07T04:37:44;4.15;;;2.20;;
83835;SDS011;73859;40.830;43.828;2024-01-07T04:40:12;6.47;;;2.13;;
83835;SDS011;73859;40.830;43.828;2024-01-07T04:42:39;3.13;;;1.80;;
83835;SDS011;73859;40.830;43.828;2024-01-07T04:45:07;3.30;;;1.88;;
83835;SDS011;73859;40.830;43.828;2024-01-07T04:47:35;4.03;;;1.90;;
83835;SDS011;73859;40.830;43.828;2024-01-07T04:50:02;2.63;;;1.70;;
83835;SDS011;73859;40.830;43.828;2024-01-07T04:52:30;2.47;;;1.83;;
83835;SDS011;73859;40.830;43.828;2024-01-07T04:54:58;4.32;;;2.10;;
83835;SDS011;73859;40.830;43.828;2024-01-07T04:57:26;4.30;;;2.13;;
83835;SDS011;73859;40.830;43.828;2024-01-07T04:59:53;9.55;;;2.85;;
83835;SDS011;73859;40.830;43.828;2024-01-07T05:02:21;9.02;;;3.25;;
83835;SDS011;73859;40.830;43.828;2024-01-07T05:04:48;4.47;;;2.60;;
83835;SDS011;73859;40.830;43.828;2024-01-07T05:07:16;13.45;;;5.93;;
83835;SDS011;73859;40.830;43.828;2024-01-07T05:09:43;13.07;;;5.07;;
83835;SDS011;73859;40.830;43.828;2024-01-07T05:12:11;7.82;;;4.25;;
83835;SDS011;73859;40.830;43.828;2024-01-07T05:14:38;10.85;;;4.72;;
83835;SDS011;73859;40.830;43.828;2024-01-07T05:17:06;9.10;;;4.45;;
83835;SDS011;73859;40.830;43.828;2024-01-07T05:19:33;9.10;;;4.55;;
83835;SDS011;73859;40.830;43.828;2024-01-07T05:22:01;11.88;;;5.18;;
83835;SDS011;73859;40.830;43.828;2024-01-07T05:24:28;9.57;;;5.50;;
83835;SDS011;73859;40.830;43.828;2024-01-07T05:26:58;11.77;;;5.45;;
83835;SDS011;73859;40.830;43.828;2024-01-07T05:29:25;9.23;;;4.45;;
83835;SDS011;73859;40.830;43.828;2024-01-07T05:31:53;6.20;;;3.05;;
83835;SDS011;73859;40.830;43.828;2024-01-07T05:34:20;3.63;;;2.30;;
83835;SDS011;73859;40.830;43.828;2024-01-07T05:36:48;6.93;;;2.97;;
83835;SDS011;73859;40.830;43.828;2024-01-07T05:39:16;5.03;;;3.25;;
83835;SDS011;73859;40.830;43.828;2024-01-07T05:41:43;10.00;;;3.25;;
83835;SDS011;73859;40.830;43.828;2024-01-07T05:44:11;5.18;;;3.90;;
83835;SDS011;73859;40.830;43.828;2024-01-07T05:46:39;12.30;;;3.97;;
83835;SDS011;73859;40.830;43.828;2024-01-07T05:49:07;6.18;;;2.85;;
83835;SDS011;73859;40.830;43.828;2024-01-07T05:51:39;5.63;;;3.30;;
83835;SDS011;73859;40.830;43.828;2024-01-07T05:54:07;8.70;;;3.58;;
83835;SDS011;73859;40.830;43.828;2024-01-07T05:56:38;10.02;;;3.17;;
83835;SDS011;73859;40.830;43.828;2024-01-07T05:59:07;5.20;;;2.80;;
83835;SDS011;73859;40.830;43.828;2024-01-07T06:01:35;5.47;;;3.00;;
83835;SDS011;73859;40.830;43.828;2024-01-07T06:04:03;8.23;;;3.20;;
83835;SDS011;73859;40.830;43.828;2024-01-07T06:06:31;12.93;;;3.33;;
83835;SDS011;73859;40.830;43.828;2024-01-07T06:08:59;12.40;;;3.72;;
83835;SDS011;73859;40.830;43.828;2024-01-07T06:11:26;6.75;;;3.65;;
83835;SDS011;73859;40.830;43.828;2024-01-07T06:13:54;11.70;;;3.83;;
83835;SDS011;73859;40.830;43.828;2024-01-07T06:16:21;11.07;;;5.97;;
83835;SDS011;73859;40.830;43.828;2024-01-07T06:18:49;10.02;;;4.25;;
83835;SDS011;73859;40.830;43.828;2024-01-07T06:21:16;13.15;;;6.10;;
83835;SDS011;73859;40.830;43.828;2024-01-07T06:23:44;15.45;;;7.40;;
83835;SDS011;73859;40.830;43.828;2024-01-07T06:26:11;21.23;;;8.88;;
83835;SDS011;73859;40.830;43.828;2024-01-07T06:28:39;17.90;;;7.47;;
83835;SDS011;73859;40.830;43.828;2024-01-07T06:31:06;15.73;;;7.32;;
83835;SDS011;73859;40.830;43.828;2024-01-07T06:33:34;12.63;;;7.38;;
83835;SDS011;73859;40.830;43.828;2024-01-07T06:36:02;16.00;;;7.30;;
83835;SDS011;73859;40.830;43.828;2024-01-07T06:38:29;16.80;;;7.90;;
83835;SDS011;73859;40.830;43.828;2024-01-07T06:40:57;17.40;;;8.55;;
83835;SDS011;73859;40.830;43.828;2024-01-07T06:43:27;18.00;;;10.00;;
83835;SDS011;73859;40.830;43.828;2024-01-07T06:45:55;18.23;;;10.40;;
83835;SDS011;73859;40.830;43.828;2024-01-07T06:48:23;23.20;;;11.10;;
83835;SDS011;73859;40.830;43.828;2024-01-07T06:50:50;29.60;;;12.88;;
83835;SDS011;73859;40.830;43.828;2024-01-07T06:53:18;32.63;;;14.75;;
83835;SDS011;73859;40.830;43.828;2024-01-07T06:55:45;26.08;;;13.85;;
83835;SDS011;73859;40.830;43.828;2024-01-07T06:58:13;28.80;;;16.58;;
83835;SDS011;73859;40.830;43.828;2024-01-07T07:00:40;24.25;;;14.32;;
83835;SDS011;73859;40.830;43.828;2024-01-07T07:03:08;25.48;;;15.05;;
83835;SDS011;73859;40.830;43.828;2024-01-07T07:05:35;25.30;;;13.75;;
83835;SDS011;73859;40.830;43.828;2024-01-07T07:08:03;27.15;;;13.73;;
83835;SDS011;73859;40.830;43.828;2024-01-07T07:10:31;22.75;;;13.85;;
83835;SDS011;73859;40.830;43.828;2024-01-07T07:12:58;28.75;;;12.85;;
83835;SDS011;73859;40.830;43.828;2024-01-07T07:15:26;28.75;;;12.80;;
83835;SDS011;73859;40.830;43.828;2024-01-07T07:17:55;25.23;;;12.75;;
83835;SDS011;73859;40.830;43.828;2024-01-07T07:22:51;23.58;;;11.60;;
83835;SDS011;73859;40.830;43.828;2024-01-07T07:25:19;30.73;;;13.20;;
83835;SDS011;73859;40.830;43.828;2024-01-07T07:27:46;31.10;;;16.73;;
83835;SDS011;73859;40.830;43.828;2024-01-07T07:30:14;18.77;;;10.15;;
83835;SDS011;73859;40.830;43.828;2024-01-07T07:32:43;20.33;;;11.77;;
83835;SDS011;73859;40.830;43.828;2024-01-07T07:35:11;18.08;;;10.10;;
83835;SDS011;73859;40.830;43.828;2024-01-07T07:37:39;20.15;;;10.30;;
83835;SDS011;73859;40.830;43.828;2024-01-07T07:40:07;18.90;;;9.43;;
83835;SDS011;73859;40.830;43.828;2024-01-07T07:42:34;21.45;;;11.13;;
83835;SDS011;73859;40.830;43.828;2024-01-07T07:45:02;16.92;;;10.30;;
83835;SDS011;73859;40.830;43.828;2024-01-07T07:47:30;19.75;;;11.80;;
83835;SDS011;73859;40.830;43.828;2024-01-07T07:49:58;21.20;;;10.32;;
83835;SDS011;73859;40.830;43.828;2024-01-07T07:52:26;20.08;;;10.57;;
83835;SDS011;73859;40.830;43.828;2024-01-07T07:54:54;15.80;;;7.90;;
83835;SDS011;73859;40.830;43.828;2024-01-07T07:57:21;12.68;;;7.75;;
83835;SDS011;73859;40.830;43.828;2024-01-07T07:59:49;13.65;;;8.52;;
83835;SDS011;73859;40.830;43.828;2024-01-07T08:02:17;13.57;;;7.10;;
83835;SDS011;73859;40.830;43.828;2024-01-07T08:04:44;16.88;;;7.13;;
83835;SDS011;73859;40.830;43.828;2024-01-07T08:07:12;15.18;;;7.50;;
83835;SDS011;73859;40.830;43.828;2024-01-07T08:09:39;11.55;;;6.22;;
83835;SDS011;73859;40.830;43.828;2024-01-07T08:12:07;8.07;;;4.47;;
83835;SDS011;73859;40.830;43.828;2024-01-07T08:14:34;11.20;;;6.32;;
83835;SDS011;73859;40.830;43.828;2024-01-07T08:17:02;11.75;;;6.13;;
83835;SDS011;73859;40.830;43.828;2024-01-07T08:19:31;11.45;;;7.05;;
83835;SDS011;73859;40.830;43.828;2024-01-07T08:21:59;10.05;;;4.90;;
83835;SDS011;73859;40.830;43.828;2024-01-07T08:24:27;8.73;;;4.65;;
83835;SDS011;73859;40.830;43.828;2024-01-07T08:26:54;7.93;;;4.68;;
83835;SDS011;73859;40.830;43.828;2024-01-07T08:29:22;10.70;;;4.68;;
83835;SDS011;73859;40.830;43.828;2024-01-07T08:31:49;6.82;;;3.97;;
83835;SDS011;73859;40.830;43.828;2024-01-07T08:34:17;7.45;;;4.95;;
83835;SDS011;73859;40.830;43.828;2024-01-07T08:36:45;10.60;;;4.05;;
83835;SDS011;73859;40.830;43.828;2024-01-07T08:39:15;7.93;;;3.80;;
83835;SDS011;73859;40.830;43.828;2024-01-07T08:41:43;6.93;;;4.78;;
83835;SDS011;73859;40.830;43.828;2024-01-07T08:44:11;7.47;;;4.40;;
83835;SDS011;73859;40.830;43.828;2024-01-07T08:49:48;10.55;;;4.10;;
83835;SDS011;73859;40.830;43.828;2024-01-07T08:52:15;9.98;;;4.70;;
83835;SDS011;73859;40.830;43.828;2024-01-07T08:54:43;7.45;;;3.95;;
83835;SDS011;73859;40.830;43.828;2024-01-07T08:57:10;6.72;;;3.67;;
83835;SDS011;73859;40.830;43.828;2024-01-07T08:59:38;7.43;;;4.50;;
83835;SDS011;73859;40.830;43.828;2024-01-07T09:02:05;7.72;;;4.25;;
83835;SDS011;73859;40.830;43.828;2024-01-07T09:04:33;8.07;;;4.97;;
83835;SDS011;73859;40.830;43.828;2024-01-07T09:07:01;9.43;;;3.80;;
83835;SDS011;73859;40.830;43.828;2024-01-07T09:09:28;6.63;;;3.75;;
83835;SDS011;73859;40.830;43.828;2024-01-07T09:11:56;5.82;;;3.95;;
83835;SDS011;73859;40.830;43.828;2024-01-07T09:14:25;10.82;;;4.78;;
83835;SDS011;73859;40.830;43.828;2024-01-07T09:16:53;7.72;;;5.22;;
83835;SDS011;73859;40.830;43.828;2024-01-07T09:19:20;6.22;;;3.53;;
83835;SDS011;73859;40.830;43.828;2024-01-07T09:21:50;7.88;;;4.00;;
83835;SDS011;73859;40.830;43.828;2024-01-07T09:24:17;8.80;;;4.40;;
83835;SDS011;73859;40.830;43.828;2024-01-07T09:26:45;8.30;;;3.70;;
83835;SDS011;73859;40.830;43.828;2024-01-07T09:29:13;8.30;;;3.80;;
83835;SDS011;73859;40.830;43.828;2024-01-07T09:31:41;6.95;;;3.70;;
83835;SDS011;73859;40.830;43.828;2024-01-07T09:34:08;10.23;;;5.38;;
83835;SDS011;73859;40.830;43.828;2024-01-07T09:36:36;7.05;;;4.55;;
83835;SDS011;73859;40.830;43.828;2024-01-07T09:39:03;6.55;;;4.30;;
83835;SDS011;73859;40.830;43.828;2024-01-07T09:41:33;7.15;;;3.90;;
83835;SDS011;73859;40.830;43.828;2024-01-07T09:44:01;9.75;;;4.75;;
83835;SDS011;73859;40.830;43.828;2024-01-07T09:46:30;6.60;;;4.18;;
83835;SDS011;73859;40.830;43.828;2024-01-07T09:48:59;6.80;;;3.88;;
83835;SDS011;73859;40.830;43.828;2024-01-07T09:51:26;6.97;;;4.20;;
83835;SDS011;73859;40.830;43.828;2024-01-07T09:53:57;9.80;;;4.07;;
83835;SDS011;73859;40.830;43.828;2024-01-07T09:56:38;5.55;;;3.78;;
83835;SDS011;73859;40.830;43.828;2024-01-07T09:59:10;7.88;;;4.78;;
83835;SDS011;73859;40.830;43.828;2024-01-07T10:01:38;7.93;;;5.68;;
83835;SDS011;73859;40.830;43.828;2024-01-07T10:04:06;10.10;;;4.88;;
83835;SDS011;73859;40.830;43.828;2024-01-07T10:06:34;6.10;;;4.53;;
83835;SDS011;73859;40.830;43.828;2024-01-07T10:09:02;9.02;;;4.68;;
83835;SDS011;73859;40.830;43.828;2024-01-07T10:11:29;9.77;;;5.60;;
83835;SDS011;73859;40.830;43.828;2024-01-07T10:13:59;8.80;;;6.35;;
83835;SDS011;73859;40.830;43.828;2024-01-07T10:16:26;11.18;;;6.00;;
83835;SDS011;73859;40.830;43.828;2024-01-07T10:18:54;8.20;;;5.25;;
83835;SDS011;73859;40.830;43.828;2024-01-07T10:21:21;8.32;;;4.72;;
83835;SDS011;73859;40.830;43.828;2024-01-07T10:23:49;9.68;;;5.20;;
83835;SDS011;73859;40.830;43.828;2024-01-07T10:26:16;9.25;;;5.55;;
83835;SDS011;73859;40.830;43.828;2024-01-07T10:28:56;8.57;;;4.75;;
83835;SDS011;73859;40.830;43.828;2024-01-07T10:31:24;7.65;;;5.40;;
83835;SDS011;73859;40.830;43.828;2024-01-07T10:33:52;8.93;;;5.72;;
83835;SDS011;73859;40.830;43.828;2024-01-07T10:36:19;7.85;;;5.40;;
83835;SDS011;73859;40.830;43.828;2024-01-07T10:38:47;6.85;;;4.55;;
83835;SDS011;73859;40.830;43.828;2024-01-07T10:41:15;7.43;;;4.70;;
83835;SDS011;73859;40.830;43.828;2024-01-07T10:43:48;10.02;;;5.43;;
83835;SDS011;73859;40.830;43.828;2024-01-07T10:46:18;11.98;;;6.22;;
83835;SDS011;73859;40.830;43.828;2024-01-07T10:51:16;9.73;;;5.53;;
83835;SDS011;73859;40.830;43.828;2024-01-07T10:53:46;9.00;;;6.20;;
83835;SDS011;73859;40.830;43.828;2024-01-07T10:56:23;9.07;;;5.53;;
83835;SDS011;73859;40.830;43.828;2024-01-07T10:58:52;11.35;;;5.90;;
83835;SDS011;73859;40.830;43.828;2024-01-07T11:01:24;11.27;;;6.55;;
83835;SDS011;73859;40.830;43.828;2024-01-07T11:04:07;8.32;;;5.20;;
83835;SDS011;73859;40.830;43.828;2024-01-07T11:06:43;8.75;;;5.68;;
83835;SDS011;73859;40.830;43.828;2024-01-07T11:11:56;8.35;;;5.72;;
83835;SDS011;73859;40.830;43.828;2024-01-07T11:14:34;9.45;;;6.13;;
83835;SDS011;73859;40.830;43.828;2024-01-07T11:17:07;8.38;;;5.68;;
83835;SDS011;73859;40.830;43.828;2024-01-07T11:19:37;7.70;;;5.13;;
83835;SDS011;73859;40.830;43.828;2024-01-07T11:22:24;8.52;;;6.07;;
83835;SDS011;73859;40.830;43.828;2024-01-07T11:25:01;8.60;;;6.35;;
83835;SDS011;73859;40.830;43.828;2024-01-07T11:27:30;10.27;;;5.78;;
83835;SDS011;73859;40.830;43.828;2024-01-07T11:32:32;7.47;;;5.25;;
83835;SDS011;73859;40.830;43.828;2024-01-07T11:35:02;7.65;;;5.00;;
83835;SDS011;73859;40.830;43.828;2024-01-07T11:37:31;9.27;;;5.53;;
83835;SDS011;73859;40.830;43.828;2024-01-07T11:39:58;8.73;;;5.70;;
83835;SDS011;73859;40.830;43.828;2024-01-07T11:42:26;7.55;;;4.82;;
83835;SDS011;73859;40.830;43.828;2024-01-07T11:44:54;7.50;;;5.22;;
83835;SDS011;73859;40.830;43.828;2024-01-07T11:47:23;7.03;;;4.68;;
83835;SDS011;73859;40.830;43.828;2024-01-07T11:49:52;9.00;;;4.80;;
83835;SDS011;73859;40.830;43.828;2024-01-07T11:54:48;9.05;;;6.25;;
83835;SDS011;73859;40.830;43.828;2024-01-07T11:57:16;11.05;;;6.35;;
83835;SDS011;73859;40.830;43.828;2024-01-07T11:59:44;7.93;;;5.55;;
83835;SDS011;73859;40.830;43.828;2024-01-07T12:02:11;8.52;;;4.25;;
83835;SDS011;73859;40.830;43.828;2024-01-07T12:04:39;7.43;;;4.18;;
83835;SDS011;73859;40.830;43.828;2024-01-07T12:07:06;7.32;;;3.92;;
83835;SDS011;73859;40.830;43.828;2024-01-07T12:09:34;9.57;;;5.00;;
83835;SDS011;73859;40.830;43.828;2024-01-07T12:12:02;9.48;;;6.00;;
83835;SDS011;73859;40.830;43.828;2024-01-07T12:14:30;9.15;;;5.30;;
83835;SDS011;73859;40.830;43.828;2024-01-07T12:16:59;8.43;;;5.25;;
83835;SDS011;73859;40.830;43.828;2024-01-07T12:19:28;9.63;;;5.20;;
83835;SDS011;73859;40.830;43.828;2024-01-07T12:22:05;15.52;;;6.20;;
83835;SDS011;73859;40.830;43.828;2024-01-07T12:24:33;11.48;;;5.88;;
83835;SDS011;73859;40.830;43.828;2024-01-07T12:27:03;13.90;;;7.03;;
83835;SDS011;73859;40.830;43.828;2024-01-07T12:29:34;9.40;;;5.18;;
83835;SDS011;73859;40.830;43.828;2024-01-07T12:32:02;10.00;;;6.38;;
83835;SDS011;73859;40.830;43.828;2024-01-07T12:34:30;9.75;;;6.07;;
83835;SDS011;73859;40.830;43.828;2024-01-07T12:36:58;8.45;;;5.32;;
83835;SDS011;73859;40.830;43.828;2024-01-07T12:39:26;8.73;;;6.35;;
83835;SDS011;73859;40.830;43.828;2024-01-07T12:41:54;8.65;;;5.88;;
83835;SDS011;73859;40.830;43.828;2024-01-07T12:44:26;9.18;;;5.25;;
83835;SDS011;73859;40.830;43.828;2024-01-07T12:46:54;9.32;;;6.53;;
83835;SDS011;73859;40.830;43.828;2024-01-07T12:49:22;10.57;;;6.75;;
83835;SDS011;73859;40.830;43.828;2024-01-07T12:51:50;9.43;;;5.65;;
83835;SDS011;73859;40.830;43.828;2024-01-07T12:54:17;11.88;;;6.32;;
83835;SDS011;73859;40.830;43.828;2024-01-07T12:56:46;8.25;;;5.15;;
83835;SDS011;73859;40.830;43.828;2024-01-07T12:59:13;6.95;;;4.97;;
83835;SDS011;73859;40.830;43.828;2024-01-07T13:01:41;16.83;;;11.57;;
83835;SDS011;73859;40.830;43.828;2024-01-07T13:04:08;7.80;;;5.13;;
83835;SDS011;73859;40.830;43.828;2024-01-07T13:06:36;6.97;;;4.35;;
83835;SDS011;73859;40.830;43.828;2024-01-07T13:09:04;6.95;;;4.60;;
83835;SDS011;73859;40.830;43.828;2024-01-07T13:11:32;7.30;;;4.25;;
83835;SDS011;73859;40.830;43.828;2024-01-07T13:14:00;11.02;;;6.63;;
83835;SDS011;73859;40.830;43.828;2024-01-07T13:16:29;6.80;;;4.32;;
83835;SDS011;73859;40.830;43.828;2024-01-07T13:18:56;5.72;;;3.63;;
83835;SDS011;73859;40.830;43.828;2024-01-07T13:21:24;5.53;;;3.72;;
83835;SDS011;73859;40.830;43.828;2024-01-07T13:23:52;6.78;;;3.90;;
83835;SDS011;73859;40.830;43.828;2024-01-07T13:26:19;6.75;;;4.13;;
83835;SDS011;73859;40.830;43.828;2024-01-07T13:28:47;7.57;;;4.55;;
83835;SDS011;73859;40.830;43.828;2024-01-07T13:31:14;8.45;;;4.72;;
83835;SDS011;73859;40.830;43.828;2024-01-07T13:33:42;11.40;;;5.10;;
83835;SDS011;73859;40.830;43.828;2024-01-07T13:36:10;7.45;;;4.45;;
83835;SDS011;73859;40.830;43.828;2024-01-07T13:38:39;10.35;;;4.60;;
83835;SDS011;73859;40.830;43.828;2024-01-07T13:41:11;8.85;;;4.43;;
83835;SDS011;73859;40.830;43.828;2024-01-07T13:43:41;6.03;;;4.13;;
83835;SDS011;73859;40.830;43.828;2024-01-07T13:46:08;10.05;;;4.20;;
83835;SDS011;73859;40.830;43.828;2024-01-07T13:48:36;7.68;;;4.15;;
83835;SDS011;73859;40.830;43.828;2024-01-07T13:51:06;6.88;;;3.97;;
83835;SDS011;73859;40.830;43.828;2024-01-07T13:53:34;7.32;;;4.55;;
83835;SDS011;73859;40.830;43.828;2024-01-07T13:56:02;12.82;;;6.30;;
83835;SDS011;73859;40.830;43.828;2024-01-07T13:58:29;9.27;;;4.85;;
83835;SDS011;73859;40.830;43.828;2024-01-07T14:00:57;9.48;;;5.13;;
83835;SDS011;73859;40.830;43.828;2024-01-07T14:03:25;10.80;;;5.38;;
83835;SDS011;73859;40.830;43.828;2024-01-07T14:05:53;12.10;;;6.15;;
83835;SDS011;73859;40.830;43.828;2024-01-07T14:08:20;10.88;;;5.82;;
83835;SDS011;73859;40.830;43.828;2024-01-07T14:10:48;14.55;;;7.72;;
83835;SDS011;73859;40.830;43.828;2024-01-07T14:13:15;12.95;;;7.80;;
83835;SDS011;73859;40.830;43.828;2024-01-07T14:15:43;15.43;;;8.35;;
83835;SDS011;73859;40.830;43.828;2024-01-07T14:18:10;13.20;;;8.23;;
83835;SDS011;73859;40.830;43.828;2024-01-07T14:20:43;14.00;;;8.30;;
83835;SDS011;73859;40.830;43.828;2024-01-07T14:23:10;20.02;;;9.70;;
83835;SDS011;73859;40.830;43.828;2024-01-07T14:25:39;19.13;;;9.55;;
83835;SDS011;73859;40.830;43.828;2024-01-07T14:28:10;19.98;;;10.13;;
83835;SDS011;73859;40.830;43.828;2024-01-07T14:30:37;19.35;;;10.60;;
83835;SDS011;73859;40.830;43.828;2024-01-07T14:33:05;16.65;;;9.88;;
83835;SDS011;73859;40.830;43.828;2024-01-07T14:35:32;24.67;;;10.15;;
83835;SDS011;73859;40.830;43.828;2024-01-07T14:38:00;18.27;;;9.52;;
83835;SDS011;73859;40.830;43.828;2024-01-07T14:40:30;19.48;;;9.70;;
83835;SDS011;73859;40.830;43.828;2024-01-07T14:42:57;19.63;;;10.88;;
83835;SDS011;73859;40.830;43.828;2024-01-07T14:45:28;27.25;;;13.52;;
83835;SDS011;73859;40.830;43.828;2024-01-07T14:47:56;21.05;;;11.15;;
83835;SDS011;73859;40.830;43.828;2024-01-07T14:50:23;28.75;;;13.50;;
83835;SDS011;73859;40.830;43.828;2024-01-07T14:53:02;25.17;;;13.50;;